createdAt,value
2023-01-07T00:01:04.646Z,8.07
2023-01-07T00:03:31.790Z,7.35
2023-01-07T00:06:02.520Z,7.18
2023-01-07T00:08:30.834Z,7.60
2023-01-07T00:11:01.256Z,7.32
2023-01-07T00:13:28.457Z,7.35
2023-01-07T00:16:02.967Z,7.35
2023-01-07T00:18:30.291Z,7.13
2023-01-07T00:20:57.907Z,6.78
2023-01-07T00:23:25.328Z,6.90
2023-01-07T00:25:52.682Z,6.70
2023-01-07T00:28:19.764Z,6.55
2023-01-07T00:30:46.816Z,6.35
2023-01-07T00:33:15.568Z,6.72
2023-01-07T00:35:44.818Z,6.18
2023-01-07T00:38:12.383Z,6.15
2023-01-07T00:40:39.428Z,6.18
2023-01-07T00:43:06.936Z,6.13
2023-01-07T00:45:37.735Z,6.13
2023-01-07T00:48:05.535Z,5.70
2023-01-07T00:50:34.123Z,5.70
2023-01-07T00:53:01.273Z,6.63
2023-01-07T00:55:28.708Z,6.32
2023-01-07T00:57:56.372Z,5.75
2023-01-07T01:00:24.764Z,5.55
2023-01-07T01:02:52.672Z,5.53
2023-01-07T01:05:20.871Z,5.50
2023-01-07T01:07:48.121Z,4.88
2023-01-07T01:10:17.633Z,5.25
2023-01-07T01:12:44.926Z,5.15
2023-01-07T01:15:15.996Z,5.50
2023-01-07T01:17:43.326Z,5.35
2023-01-07T01:20:12.656Z,4.80
2023-01-07T01:22:39.811Z,5.30
2023-01-07T01:25:07.207Z,5.40
2023-01-07T01:27:34.443Z,5.32
2023-01-07T01:30:02.270Z,5.38
2023-01-07T01:32:31.403Z,5.35
2023-01-07T01:34:58.583Z,5.63
2023-01-07T01:37:25.820Z,5.00
2023-01-07T01:39:52.924Z,5.70
2023-01-07T01:42:24.554Z,5.05
2023-01-07T01:44:57.087Z,5.63
2023-01-07T01:50:17.471Z,6.25
2023-01-07T01:52:49.098Z,5.25
2023-01-07T01:55:17.580Z,5.30
2023-01-07T01:57:47.600Z,5.45
2023-01-07T02:00:16.558Z,5.70
2023-01-07T02:02:50.468Z,5.55
2023-01-07T02:05:18.084Z,4.93
2023-01-07T02:07:45.234Z,5.30
2023-01-07T02:10:20.155Z,5.38
2023-01-07T02:13:01.211Z,6.00
2023-01-07T02:15:28.291Z,4.95
2023-01-07T02:18:26.794Z,4.70
2023-01-07T02:21:06.177Z,5.60
2023-01-07T02:23:45.519Z,5.10
2023-01-07T02:26:41.288Z,5.50
2023-01-07T02:29:29.420Z,5.80
2023-01-07T02:31:59.534Z,5.03
2023-01-07T02:34:32.541Z,5.80
2023-01-07T02:37:02.416Z,5.18
2023-01-07T02:39:42.060Z,5.13
2023-01-07T02:42:21.553Z,5.22
2023-01-07T02:44:56.634Z,5.18
2023-01-07T02:47:29.440Z,5.18
2023-01-07T02:49:59.051Z,5.88
2023-01-07T02:52:32.586Z,5.35
2023-01-07T02:55:05.788Z,5.30
2023-01-07T02:57:48.137Z,4.90
2023-01-07T03:00:24.163Z,4.80
2023-01-07T03:02:51.249Z,4.88
2023-01-07T03:05:34.951Z,4.90
2023-01-07T03:08:21.580Z,4.75
2023-01-07T03:11:02.610Z,4.78
2023-01-07T03:13:39.111Z,4.53
2023-01-07T03:16:09.626Z,4.60
2023-01-07T03:18:39.732Z,4.82
2023-01-07T03:21:10.698Z,5.05
2023-01-07T03:23:40.204Z,4.97
2023-01-07T03:26:07.641Z,4.47
2023-01-07T03:28:40.492Z,4.53
2023-01-07T03:31:11.052Z,4.78
2023-01-07T03:33:38.536Z,4.72
2023-01-07T03:36:06.900Z,4.72
2023-01-07T03:38:36.325Z,4.65
2023-01-07T03:41:03.761Z,4.15
2023-01-07T03:43:31.019Z,4.38
2023-01-07T03:45:58.419Z,4.68
2023-01-07T03:48:28.010Z,4.32
2023-01-07T03:50:56.238Z,3.97
2023-01-07T03:53:23.328Z,4.47
2023-01-07T03:55:51.952Z,4.50
2023-01-07T03:58:19.371Z,4.10
2023-01-07T04:00:46.545Z,4.00
2023-01-07T04:03:18.646Z,4.45
2023-01-07T04:05:47.571Z,4.22
2023-01-07T04:08:15.131Z,4.03
2023-01-07T04:10:42.720Z,4.70
2023-01-07T04:13:11.413Z,3.97
2023-01-07T04:15:38.655Z,4.07
2023-01-07T04:18:06.409Z,4.47
2023-01-07T04:20:33.639Z,4.07
2023-01-07T04:23:00.795Z,4.32
2023-01-07T04:25:28.739Z,3.83
2023-01-07T04:27:56.310Z,4.60
2023-01-07T04:30:24.069Z,4.15
2023-01-07T04:32:52.004Z,4.13
2023-01-07T04:35:19.168Z,4.03
2023-01-07T04:37:46.315Z,4.05
2023-01-07T04:40:13.559Z,4.20
2023-01-07T04:42:40.720Z,3.97
2023-01-07T04:45:09.619Z,3.78
2023-01-07T04:47:36.817Z,3.70
2023-01-07T04:50:04.747Z,3.83
2023-01-07T04:52:34.599Z,3.95
2023-01-07T04:55:01.996Z,3.75
2023-01-07T04:57:29.207Z,3.85
2023-01-07T04:59:56.607Z,3.70
2023-01-07T05:02:23.888Z,3.78
2023-01-07T05:04:51.197Z,3.70
2023-01-07T05:07:19.631Z,3.47
2023-01-07T05:09:46.787Z,3.70
2023-01-07T05:12:14.020Z,3.38
2023-01-07T05:14:42.892Z,3.70
2023-01-07T05:17:10.088Z,3.15
2023-01-07T05:19:38.533Z,3.78
2023-01-07T05:22:05.951Z,3.78
2023-01-07T05:24:36.850Z,3.90
2023-01-07T05:27:04.029Z,3.63
2023-01-07T05:29:31.928Z,3.42
2023-01-07T05:31:59.232Z,3.13
2023-01-07T05:34:26.817Z,3.05
2023-01-07T05:36:54.938Z,3.45
2023-01-07T05:39:22.145Z,3.35
2023-01-07T05:41:49.692Z,3.22
2023-01-07T05:44:17.245Z,3.30
2023-01-07T05:46:44.351Z,3.55
2023-01-07T05:49:11.456Z,3.25
2023-01-07T05:51:38.656Z,3.67
2023-01-07T05:54:06.001Z,3.38
2023-01-07T05:56:33.115Z,3.72
2023-01-07T05:59:00.193Z,3.13
2023-01-07T06:01:27.413Z,2.88
2023-01-07T06:03:54.621Z,3.47
2023-01-07T06:06:21.863Z,2.83
2023-01-07T06:08:48.988Z,3.00
2023-01-07T06:11:16.062Z,2.95
2023-01-07T06:13:43.251Z,3.00
2023-01-07T06:16:10.759Z,3.20
2023-01-07T06:18:37.893Z,2.78
2023-01-07T06:21:05.071Z,3.10
2023-01-07T06:23:32.206Z,2.72
2023-01-07T06:25:59.331Z,2.55
2023-01-07T06:28:26.394Z,2.60
2023-01-07T06:30:55.276Z,2.63
2023-01-07T06:33:22.484Z,2.70
2023-01-07T06:35:49.620Z,2.45
2023-01-07T06:38:16.820Z,2.80
2023-01-07T06:40:44.638Z,2.28
2023-01-07T06:43:12.010Z,2.50
2023-01-07T06:45:41.328Z,2.50
2023-01-07T06:48:08.668Z,2.00
2023-01-07T06:50:35.876Z,2.60
2023-01-07T06:53:02.932Z,2.50
2023-01-07T06:55:30.138Z,2.20
2023-01-07T06:57:57.224Z,2.40
2023-01-07T07:00:24.394Z,2.20
2023-01-07T07:02:51.511Z,2.30
2023-01-07T07:05:18.592Z,2.30
2023-01-07T07:07:45.714Z,2.78
2023-01-07T07:10:13.105Z,2.63
2023-01-07T07:12:40.630Z,2.30
2023-01-07T07:15:08.728Z,2.40
2023-01-07T07:17:35.866Z,2.50
2023-01-07T07:20:02.988Z,2.50
2023-01-07T07:22:30.077Z,2.20
2023-01-07T07:24:57.186Z,2.40
2023-01-07T07:27:24.329Z,1.77
2023-01-07T07:29:51.398Z,2.40
2023-01-07T07:32:18.600Z,2.10
2023-01-07T07:34:45.669Z,1.98
2023-01-07T07:37:12.747Z,2.10
2023-01-07T07:39:39.784Z,1.90
2023-01-07T07:42:06.963Z,1.73
2023-01-07T07:44:34.027Z,2.00
2023-01-07T07:47:01.205Z,1.73
2023-01-07T07:49:28.400Z,1.80
2023-01-07T07:51:55.601Z,1.77
2023-01-07T07:54:24.011Z,2.00
2023-01-07T07:56:51.263Z,1.70
2023-01-07T07:59:18.386Z,1.67
2023-01-07T08:01:45.619Z,1.70
2023-01-07T08:04:12.826Z,1.42
2023-01-07T08:06:39.969Z,1.65
2023-01-07T08:09:07.097Z,1.70
2023-01-07T08:11:34.307Z,1.55
2023-01-07T08:14:01.420Z,1.55
2023-01-07T08:16:28.621Z,2.00
2023-01-07T08:18:55.734Z,2.00
2023-01-07T08:21:23.676Z,1.67
2023-01-07T08:23:50.813Z,1.40
2023-01-07T08:26:17.947Z,1.70
2023-01-07T08:28:46.634Z,1.63
2023-01-07T08:31:14.093Z,1.40
2023-01-07T08:33:41.225Z,1.50
2023-01-07T08:36:21.526Z,1.35
2023-01-07T08:38:55.609Z,1.50
2023-01-07T08:41:23.401Z,1.50
2023-01-07T08:43:50.978Z,1.50
2023-01-07T08:46:18.137Z,1.45
2023-01-07T08:48:45.322Z,1.50
2023-01-07T08:51:12.452Z,1.33
2023-01-07T08:53:39.590Z,1.27
2023-01-07T08:56:06.978Z,1.38
2023-01-07T08:58:34.083Z,1.27
2023-01-07T09:01:02.866Z,1.20
2023-01-07T09:03:30.074Z,1.20
2023-01-07T09:05:57.230Z,1.40
2023-01-07T09:08:24.381Z,1.10
2023-01-07T09:10:51.518Z,1.20
2023-01-07T09:13:18.602Z,1.17
2023-01-07T09:15:46.055Z,1.13
2023-01-07T09:18:13.137Z,1.40
2023-01-07T09:20:40.308Z,1.25
2023-01-07T09:23:07.601Z,1.25
2023-01-07T09:25:34.722Z,1.30
2023-01-07T09:28:01.799Z,1.30
2023-01-07T09:30:28.918Z,1.30
2023-01-07T09:32:56.049Z,1.17
2023-01-07T09:35:23.257Z,1.20
2023-01-07T09:37:50.357Z,1.05
2023-01-07T09:40:23.960Z,1.30
2023-01-07T09:42:56.926Z,1.08
2023-01-07T09:45:25.844Z,1.38
2023-01-07T09:47:55.378Z,1.15
2023-01-07T09:50:45.392Z,1.10
2023-01-07T09:53:15.815Z,1.10
2023-01-07T09:56:11.477Z,1.17
2023-01-07T09:58:30.708Z,1.17
2023-01-07T10:01:12.995Z,1.10
2023-01-07T10:03:49.267Z,1.05
2023-01-07T10:06:42.407Z,1.23
2023-01-07T10:09:16.890Z,1.23
2023-01-07T10:11:55.445Z,1.15
2023-01-07T10:14:47.192Z,1.15
2023-01-07T10:17:26.541Z,1.10
2023-01-07T10:19:56.741Z,1.27
2023-01-07T10:22:31.627Z,1.15
2023-01-07T10:25:02.295Z,1.25
2023-01-07T10:27:31.327Z,1.35
2023-01-07T10:30:01.309Z,1.30
2023-01-07T10:32:31.045Z,1.13
2023-01-07T10:34:59.611Z,1.10
2023-01-07T10:37:37.840Z,1.15
2023-01-07T10:40:08.277Z,1.10
2023-01-07T10:42:47.239Z,1.20
2023-01-07T10:45:22.245Z,1.10
2023-01-07T10:47:59.327Z,1.38
2023-01-07T10:50:26.449Z,1.10
2023-01-07T10:53:09.029Z,1.02
2023-01-07T10:56:01.536Z,1.80
2023-01-07T10:58:33.267Z,1.20
2023-01-07T11:01:00.633Z,1.05
2023-01-07T11:03:27.815Z,1.23
2023-01-07T11:05:56.944Z,1.25
2023-01-07T11:08:33.208Z,1.15
2023-01-07T11:11:00.489Z,1.17
2023-01-07T11:13:29.426Z,1.10
2023-01-07T11:15:59.028Z,1.40
2023-01-07T11:18:33.813Z,1.30
2023-01-07T11:21:01.110Z,1.40
2023-01-07T11:23:30.184Z,1.15
2023-01-07T11:26:15.544Z,1.50
2023-01-07T11:28:54.664Z,1.13
2023-01-07T11:31:23.625Z,1.20
2023-01-07T11:34:01.958Z,1.20
2023-01-07T11:36:40.735Z,1.10
2023-01-07T11:39:21.717Z,1.10
2023-01-07T11:41:53.067Z,1.10
2023-01-07T11:44:20.202Z,1.30
2023-01-07T11:46:47.526Z,0.90
2023-01-07T11:49:22.799Z,1.10
2023-01-07T11:51:49.922Z,1.10
2023-01-07T11:54:21.895Z,1.02
2023-01-07T11:56:49.036Z,1.10
2023-01-07T11:59:24.319Z,0.95
2023-01-07T12:01:52.749Z,1.10
2023-01-07T12:04:25.695Z,1.00
2023-01-07T12:06:54.517Z,1.15
2023-01-07T12:09:24.718Z,0.90
2023-01-07T12:11:52.456Z,1.00
2023-01-07T12:14:27.573Z,1.00
2023-01-07T12:16:55.718Z,0.90
2023-01-07T12:19:46.596Z,1.10
2023-01-07T12:22:22.697Z,0.90
2023-01-07T12:24:49.817Z,1.10
2023-01-07T12:27:29.036Z,1.05
2023-01-07T12:30:25.636Z,1.02
2023-01-07T12:33:10.804Z,1.10
2023-01-07T12:35:40.183Z,1.10
2023-01-07T12:38:12.460Z,1.10
2023-01-07T12:40:39.561Z,1.27
2023-01-07T12:43:25.348Z,1.05
2023-01-07T12:46:00.117Z,0.82
2023-01-07T12:48:27.427Z,1.00
2023-01-07T12:50:56.169Z,1.13
2023-01-07T12:53:37.118Z,1.20
2023-01-07T12:56:07.835Z,1.00
2023-01-07T12:58:44.727Z,1.10
2023-01-07T13:01:30.161Z,1.08
2023-01-07T13:04:00.347Z,1.00
2023-01-07T13:06:42.485Z,1.23
2023-01-07T13:09:15.349Z,0.98
2023-01-07T13:12:42.540Z,0.93
2023-01-07T13:15:02.817Z,1.10
2023-01-07T13:17:31.429Z,1.10
2023-01-07T13:19:58.609Z,1.10
2023-01-07T13:22:31.278Z,1.38
2023-01-07T13:25:41.839Z,1.10
2023-01-07T13:28:15.011Z,1.00
2023-01-07T13:30:53.977Z,1.10
2023-01-07T13:33:25.713Z,1.30
2023-01-07T13:36:11.511Z,1.00
2023-01-07T13:41:17.385Z,1.10
2023-01-07T13:43:44.529Z,1.38
2023-01-07T13:46:16.276Z,1.20
2023-01-07T13:48:48.380Z,1.05
2023-01-07T13:51:15.702Z,1.13
2023-01-07T13:53:46.088Z,1.20
2023-01-07T13:56:19.084Z,1.40
2023-01-07T13:58:46.212Z,1.13
2023-01-07T14:01:20.458Z,1.30
2023-01-07T14:03:58.443Z,1.42
2023-01-07T14:06:39.080Z,1.13
2023-01-07T14:09:13.377Z,1.30
2023-01-07T14:11:43.999Z,1.20
2023-01-07T14:14:32.077Z,1.50
2023-01-07T14:17:23.075Z,1.40
2023-01-07T14:19:53.335Z,1.40
2023-01-07T14:22:26.229Z,1.50
2023-01-07T14:24:56.562Z,1.33
2023-01-07T14:28:00.293Z,1.40
2023-01-07T14:30:35.909Z,1.40
2023-01-07T14:33:06.869Z,1.50
2023-01-07T14:35:37.313Z,1.50
2023-01-07T14:38:31.804Z,1.63
2023-01-07T14:41:11.024Z,1.67
2023-01-07T14:43:41.124Z,1.27
2023-01-07T14:46:23.627Z,1.30
2023-01-07T14:49:03.008Z,1.50
2023-01-07T14:51:37.403Z,1.52
2023-01-07T14:54:19.715Z,1.40
2023-01-07T14:57:04.882Z,1.77
2023-01-07T14:59:39.562Z,1.40
2023-01-07T15:02:09.556Z,1.58
2023-01-07T15:04:51.969Z,1.50
2023-01-07T15:07:21.344Z,1.38
2023-01-07T15:10:15.685Z,1.60
2023-01-07T15:13:03.209Z,1.45
2023-01-07T15:15:53.369Z,1.45
2023-01-07T15:18:21.892Z,1.60
2023-01-07T15:21:10.034Z,1.55
2023-01-07T15:23:49.318Z,1.60
2023-01-07T15:26:19.256Z,1.60
2023-01-07T15:28:56.523Z,1.50
2023-01-07T15:31:29.310Z,1.75
2023-01-07T15:34:02.473Z,1.73
2023-01-07T15:38:58.729Z,1.70
2023-01-07T15:41:34.978Z,1.67
2023-01-07T15:44:03.304Z,1.77
2023-01-07T15:46:32.111Z,1.48
2023-01-07T15:49:05.247Z,1.70
2023-01-07T15:53:59.438Z,1.85
2023-01-07T15:56:26.580Z,1.75
2023-01-07T15:58:53.731Z,2.20
2023-01-07T16:01:22.463Z,1.70
2023-01-07T16:03:50.815Z,1.63
2023-01-07T16:06:23.759Z,1.80
2023-01-07T16:08:51.091Z,1.75
2023-01-07T16:11:25.363Z,2.17
2023-01-07T16:13:57.038Z,1.60
2023-01-07T16:16:24.953Z,1.70
2023-01-07T16:18:59.150Z,1.67
2023-01-07T16:21:27.816Z,1.45
2023-01-07T16:23:55.212Z,1.42
2023-01-07T16:26:24.731Z,1.40
2023-01-07T16:29:03.640Z,1.80
2023-01-07T16:31:31.253Z,2.20
2023-01-07T16:33:58.992Z,2.03
2023-01-07T16:36:27.751Z,1.58
2023-01-07T16:38:57.412Z,1.50
2023-01-07T16:41:28.518Z,1.90
2023-01-07T16:43:59.855Z,2.35
2023-01-07T16:46:35.995Z,1.88
2023-01-07T16:49:12.067Z,1.60
2023-01-07T16:51:39.131Z,2.17
2023-01-07T16:54:19.671Z,1.60
2023-01-07T16:56:48.813Z,1.88
2023-01-07T16:59:16.238Z,1.80
2023-01-07T17:01:43.466Z,1.90
2023-01-07T17:04:16.699Z,2.08
2023-01-07T17:06:44.161Z,1.92
2023-01-07T17:09:22.146Z,1.67
2023-01-07T17:11:52.963Z,2.30
2023-01-07T17:14:38.224Z,1.85
2023-01-07T17:17:09.116Z,1.90
2023-01-07T17:19:40.625Z,2.47
2023-01-07T17:22:29.457Z,2.50
2023-01-07T17:25:12.968Z,2.20
2023-01-07T17:27:51.792Z,1.92
2023-01-07T17:30:20.645Z,2.15
2023-01-07T17:32:50.545Z,2.78
2023-01-07T17:35:19.171Z,2.22
2023-01-07T17:37:46.412Z,2.35
2023-01-07T17:40:14.417Z,2.10
2023-01-07T17:43:00.443Z,2.30
2023-01-07T17:45:28.082Z,2.38
2023-01-07T17:47:55.375Z,2.10
2023-01-07T17:50:22.569Z,2.50
2023-01-07T17:52:51.059Z,2.55
2023-01-07T17:55:21.072Z,2.65
2023-01-07T17:57:48.194Z,2.15
2023-01-07T18:00:20.309Z,2.50
2023-01-07T18:02:48.404Z,2.10
2023-01-07T18:05:16.648Z,2.05
2023-01-07T18:07:43.779Z,2.33
2023-01-07T18:10:14.798Z,2.40
2023-01-07T18:12:41.992Z,2.10
2023-01-07T18:15:22.789Z,2.50
2023-01-07T18:17:49.968Z,2.20
2023-01-07T18:20:17.988Z,2.10
2023-01-07T18:22:45.807Z,2.08
2023-01-07T18:25:16.604Z,2.22
2023-01-07T18:27:45.028Z,1.90
2023-01-07T18:30:17.545Z,2.20
2023-01-07T18:32:44.954Z,2.00
2023-01-07T18:35:12.407Z,2.50
2023-01-07T18:37:39.512Z,2.22
2023-01-07T18:40:07.314Z,2.40
2023-01-07T18:42:34.893Z,2.13
2023-01-07T18:45:02.334Z,2.45
2023-01-07T18:47:29.481Z,2.03
2023-01-07T18:49:56.607Z,3.03
2023-01-07T18:52:23.813Z,2.10
2023-01-07T18:54:53.511Z,2.00
2023-01-07T18:57:20.867Z,2.28
2023-01-07T18:59:47.954Z,2.38
2023-01-07T19:02:16.345Z,2.85
2023-01-07T19:04:43.683Z,2.65
2023-01-07T19:07:11.015Z,2.58
2023-01-07T19:09:38.122Z,2.40
2023-01-07T19:12:05.960Z,2.42
2023-01-07T19:14:33.562Z,2.38
2023-01-07T19:17:01.821Z,2.55
2023-01-07T19:19:34.251Z,2.45
2023-01-07T19:22:10.850Z,2.38
2023-01-07T19:24:37.957Z,2.30
2023-01-07T19:27:05.432Z,2.42
2023-01-07T19:29:32.544Z,2.75
2023-01-07T19:31:59.731Z,2.47
2023-01-07T19:34:26.991Z,1.92
2023-01-07T19:36:54.173Z,2.55
2023-01-07T19:39:22.216Z,2.40
2023-01-07T19:41:49.779Z,2.53
2023-01-07T19:44:16.994Z,2.47
2023-01-07T19:46:44.357Z,2.42
2023-01-07T19:49:13.399Z,2.80
2023-01-07T19:51:41.247Z,2.50
2023-01-07T19:54:10.148Z,2.10
2023-01-07T19:56:37.488Z,2.00
2023-01-07T19:59:04.568Z,2.40
2023-01-07T20:01:36.890Z,2.42
2023-01-07T20:04:05.618Z,2.28
2023-01-07T20:06:35.421Z,2.47
2023-01-07T20:09:10.465Z,2.40
2023-01-07T20:11:42.419Z,2.00
2023-01-07T20:14:10.580Z,2.10
2023-01-07T20:16:39.372Z,2.25
2023-01-07T20:19:06.821Z,2.30
2023-01-07T20:21:34.119Z,2.40
2023-01-07T20:24:01.208Z,2.10
2023-01-07T20:26:29.530Z,2.47
2023-01-07T20:28:57.212Z,1.92
2023-01-07T20:31:25.072Z,2.53
2023-01-07T20:33:52.345Z,2.53
2023-01-07T20:36:21.089Z,2.33
2023-01-07T20:38:49.307Z,2.10
2023-01-07T20:41:18.486Z,2.30
2023-01-07T20:43:50.224Z,1.98
2023-01-07T20:46:17.353Z,2.65
2023-01-07T20:48:44.744Z,2.70
2023-01-07T20:51:12.736Z,2.72
2023-01-07T20:53:40.053Z,2.15
2023-01-07T20:56:08.006Z,2.50
2023-01-07T20:58:36.772Z,2.50
2023-01-07T21:01:05.178Z,2.40
2023-01-07T21:03:32.497Z,2.65
2023-01-07T21:05:59.632Z,3.10
2023-01-07T21:08:27.219Z,2.85
2023-01-07T21:10:54.502Z,2.55
2023-01-07T21:13:22.411Z,2.20
2023-01-07T21:15:49.796Z,2.40
2023-01-07T21:18:16.958Z,2.63
2023-01-07T21:20:44.151Z,2.15
2023-01-07T21:23:11.888Z,2.17
2023-01-07T21:25:39.116Z,2.40
2023-01-07T21:28:06.589Z,2.47
2023-01-07T21:30:34.103Z,2.40
2023-01-07T21:33:01.391Z,2.08
2023-01-07T21:35:28.552Z,2.03
2023-01-07T21:37:55.873Z,2.20
2023-01-07T21:40:23.476Z,2.33
2023-01-07T21:42:50.696Z,2.70
2023-01-07T21:45:17.833Z,2.50
2023-01-07T21:47:44.924Z,2.28
2023-01-07T21:50:15.438Z,2.08
2023-01-07T21:52:43.121Z,2.22
2023-01-07T21:55:10.533Z,2.15
2023-01-07T21:57:38.206Z,2.13
2023-01-07T22:00:06.040Z,2.00
2023-01-07T22:02:39.303Z,2.17
2023-01-07T22:05:06.960Z,2.17
2023-01-07T22:07:34.076Z,2.10
2023-01-07T22:10:01.122Z,2.22
2023-01-07T22:12:28.311Z,2.20
2023-01-07T22:14:55.723Z,2.55
2023-01-07T22:17:24.446Z,2.38
2023-01-07T22:19:51.655Z,2.20
2023-01-07T22:22:20.786Z,2.38
2023-01-07T22:24:47.973Z,2.58
2023-01-07T22:27:15.170Z,2.05
2023-01-07T22:29:44.371Z,2.17
2023-01-07T22:32:11.612Z,2.08
2023-01-07T22:34:38.795Z,2.33
2023-01-07T22:37:07.894Z,2.17
2023-01-07T22:39:40.418Z,2.28
2023-01-07T22:42:09.828Z,1.85
2023-01-07T22:44:40.221Z,2.42
2023-01-07T22:47:08.582Z,2.45
2023-01-07T22:49:35.980Z,2.35
2023-01-07T22:52:03.351Z,2.55
2023-01-07T22:54:31.581Z,2.50
2023-01-07T22:56:58.714Z,2.50
2023-01-07T22:59:25.910Z,2.58
2023-01-07T23:01:52.977Z,2.35
2023-01-07T23:04:20.169Z,2.70
2023-01-07T23:06:47.373Z,2.55
2023-01-07T23:09:14.454Z,2.30
2023-01-07T23:11:47.546Z,2.25
2023-01-07T23:14:15.409Z,2.60
2023-01-07T23:16:42.849Z,2.35
2023-01-07T23:19:10.065Z,2.33
2023-01-07T23:21:39.523Z,2.70
2023-01-07T23:24:06.717Z,2.28
2023-01-07T23:26:33.868Z,2.28
2023-01-07T23:29:01.000Z,2.13
2023-01-07T23:31:42.991Z,2.33
2023-01-07T23:34:12.101Z,2.38
2023-01-07T23:36:39.803Z,2.50
2023-01-07T23:39:06.953Z,2.30
2023-01-07T23:41:34.428Z,2.42
2023-01-07T23:44:01.547Z,2.75
2023-01-07T23:46:28.710Z,1.50
2023-01-07T23:48:55.859Z,1.40
2023-01-07T23:51:23.170Z,1.10
2023-01-07T23:53:50.358Z,1.08
2023-01-07T23:56:21.710Z,1.35
2023-01-07T23:58:49.330Z,1.00
